Time;durP1;ratioP1;P1;durP2;ratioP2;P2;SDS_P1;SDS_P2;PMS_P1;PMS_P2;Temp;Humidity;BMP_temperature;BMP_pressure;BME280_temperature;BME280_humidity;BME280_pressure;Samples;Min_cycle;Max_cycle;Signal;HPM_P1;HPM_P2
2022/05/02 00:00:53;;;;;;;7.55;4.22;;;16.70;51.00;;;;;;5036580;28;20030;-75
2022/05/02 00:03:19;;;;;;;9.35;5.25;;;16.70;51.60;;;;;;5054153;28;20088;-75
2022/05/02 00:05:45;;;;;;;8.27;4.28;;;16.60;52.40;;;;;;5057664;28;20036;-75
2022/05/02 00:08:11;;;;;;;7.28;5.07;;;16.60;51.70;;;;;;5056375;28;20033;-75
2022/05/02 00:10:37;;;;;;;7.13;4.70;;;16.50;52.00;;;;;;5051837;28;20078;-75
2022/05/02 00:13:04;;;;;;;6.35;4.38;;;16.50;51.80;;;;;;5037322;28;20118;-75
2022/05/02 00:15:31;;;;;;;7.30;5.07;;;16.50;51.90;;;;;;5052935;28;20045;-76
2022/05/02 00:17:57;;;;;;;7.28;4.72;;;16.30;52.80;;;;;;5051887;28;20422;-76
2022/05/02 00:20:34;;;;;;;8.52;5.07;;;16.20;52.30;;;;;;5037471;28;20031;-75
2022/05/02 00:23:02;;;;;;;6.93;4.95;;;16.30;52.90;;;;;;5036137;28;20047;-75
2022/05/02 00:25:28;;;;;;;7.22;4.43;;;16.20;52.40;;;;;;5037662;28;20032;-76
2022/05/02 00:27:54;;;;;;;8.43;4.93;;;16.20;52.30;;;;;;5057280;28;20090;-75
2022/05/02 00:30:20;;;;;;;7.15;4.72;;;16.20;52.70;;;;;;5055174;28;20029;-75
2022/05/02 00:32:46;;;;;;;12.05;5.05;;;16.20;52.60;;;;;;5055464;28;20080;-76
2022/05/02 00:35:13;;;;;;;6.57;4.25;;;16.10;53.30;;;;;;5042627;28;20495;-76
2022/05/02 00:37:39;;;;;;;8.57;5.35;;;16.10;52.90;;;;;;5037151;28;20107;-76
2022/05/02 00:40:07;;;;;;;7.72;4.80;;;16.10;53.10;;;;;;5035527;28;20053;-76
2022/05/02 00:42:33;;;;;;;8.77;5.18;;;16.10;53.00;;;;;;5036935;28;20116;-76
2022/05/02 00:44:59;;;;;;;7.35;5.10;;;16.20;52.80;;;;;;5035690;28;20022;-75
2022/05/02 00:47:25;;;;;;;9.60;5.97;;;16.20;53.20;;;;;;5036485;28;20026;-75
2022/05/02 00:49:51;;;;;;;9.05;4.97;;;16.20;53.10;;;;;;5036904;28;20104;-76
2022/05/02 00:52:18;;;;;;;8.75;5.00;;;16.30;52.80;;;;;;5038460;28;20057;-76
2022/05/02 00:54:44;;;;;;;8.30;5.47;;;16.30;52.90;;;;;;5036907;28;20526;-76
2022/05/02 00:57:15;;;;;;;7.95;4.88;;;16.30;52.80;;;;;;5039284;28;20048;-76
2022/05/02 00:59:41;;;;;;;9.80;5.10;;;16.30;52.70;;;;;;5056725;28;20096;-75
2022/05/02 01:02:09;;;;;;;8.65;5.85;;;16.20;52.60;;;;;;5040770;28;20053;-75
2022/05/02 01:04:36;;;;;;;8.02;5.05;;;16.30;53.00;;;;;;5051156;28;20028;-75
2022/05/02 01:07:19;;;;;;;9.65;5.50;;;16.30;53.60;;;;;;5055932;28;20033;-76
2022/05/02 01:09:47;;;;;;;8.25;4.88;;;16.30;52.80;;;;;;5040292;28;20088;-75
2022/05/02 01:12:15;;;;;;;8.02;4.68;;;16.30;52.70;;;;;;5036494;28;20029;-75
2022/05/02 01:14:42;;;;;;;9.27;5.28;;;16.20;53.60;;;;;;5036540;28;20032;-76
2022/05/02 01:17:09;;;;;;;7.95;4.85;;;16.20;53.30;;;;;;5036371;28;20021;-75
2022/05/02 01:19:35;;;;;;;7.80;4.80;;;16.20;53.80;;;;;;5036375;28;20381;-75
2022/05/02 01:22:02;;;;;;;10.43;5.88;;;16.10;54.30;;;;;;5035013;28;20033;-75
2022/05/02 01:24:35;;;;;;;8.40;5.15;;;16.10;53.90;;;;;;5038513;28;20697;-76
2022/05/02 01:27:01;;;;;;;8.70;6.07;;;16.10;54.20;;;;;;5055898;28;20029;-75
2022/05/02 01:29:27;;;;;;;9.75;6.13;;;16.10;54.10;;;;;;5042186;28;20434;-76
2022/05/02 01:31:54;;;;;;;8.10;5.03;;;16.00;54.20;;;;;;5036239;28;20033;-76
2022/05/02 01:34:20;;;;;;;6.63;4.95;;;16.00;54.40;;;;;;5067949;28;20018;-76
2022/05/02 01:36:46;;;;;;;8.70;5.25;;;15.90;55.00;;;;;;5034534;28;20021;-75
2022/05/02 01:39:12;;;;;;;9.35;5.50;;;15.90;55.20;;;;;;5035890;28;20076;-76
2022/05/02 01:41:37;;;;;;;7.65;5.68;;;15.80;54.90;;;;;;5035399;28;20048;-75
2022/05/02 01:44:03;;;;;;;7.10;5.20;;;15.80;55.50;;;;;;5035367;28;20030;-75
2022/05/02 01:46:29;;;;;;;10.60;5.88;;;15.80;55.70;;;;;;5034344;28;20096;-75
2022/05/02 01:48:56;;;;;;;9.15;5.85;;;15.70;56.10;;;;;;5035802;28;20057;-75
2022/05/02 01:51:21;;;;;;;11.43;5.75;;;15.70;56.20;;;;;;5038092;28;20025;-75
2022/05/02 01:53:47;;;;;;;9.57;5.78;;;15.70;55.90;;;;;;5050155;28;20026;-76
2022/05/02 01:56:13;;;;;;;10.60;5.80;;;15.70;55.70;;;;;;5035721;28;20057;-75
2022/05/02 01:58:38;;;;;;;8.88;5.35;;;15.70;56.10;;;;;;5050060;28;20025;-75
2022/05/02 02:01:04;;;;;;;8.55;5.88;;;15.70;56.00;;;;;;5044243;28;20037;-75
2022/05/02 02:03:30;;;;;;;10.45;5.70;;;15.60;56.70;;;;;;5039810;28;20032;-75
2022/05/02 02:05:58;;;;;;;10.07;5.80;;;15.60;56.40;;;;;;5049992;28;20105;-75
2022/05/02 02:08:26;;;;;;;7.63;5.28;;;15.50;56.50;;;;;;5035529;28;20029;-75
2022/05/02 02:10:55;;;;;;;9.63;6.13;;;15.60;56.50;;;;;;5035427;28;20091;-75
2022/05/02 02:13:21;;;;;;;8.13;6.25;;;15.60;56.20;;;;;;5035249;28;20029;-75
2022/05/02 02:15:47;;;;;;;10.57;5.75;;;15.50;56.80;;;;;;5038598;28;20504;-75
2022/05/02 02:18:13;;;;;;;9.23;5.82;;;15.50;56.90;;;;;;5033885;28;20752;-75
2022/05/02 02:20:42;;;;;;;8.70;5.97;;;15.50;56.10;;;;;;5035436;28;20468;-76
2022/05/02 02:23:09;;;;;;;8.70;6.32;;;15.50;56.10;;;;;;5035138;28;20033;-76
2022/05/02 02:25:36;;;;;;;11.98;6.47;;;15.50;56.60;;;;;;5035445;28;20110;-75
2022/05/02 02:28:01;;;;;;;10.30;6.00;;;15.40;56.90;;;;;;5035197;28;20071;-75
2022/05/02 02:30:28;;;;;;;8.88;5.97;;;15.40;57.10;;;;;;5035143;28;20491;-75
2022/05/02 02:32:54;;;;;;;8.50;5.80;;;15.40;57.00;;;;;;5066978;28;20488;-75
2022/05/02 02:35:20;;;;;;;9.60;5.80;;;15.40;57.10;;;;;;5034543;28;20044;-75
2022/05/02 02:37:47;;;;;;;7.32;5.75;;;15.30;57.40;;;;;;5034795;28;20503;-75
2022/05/02 02:40:14;;;;;;;7.82;5.55;;;15.40;57.00;;;;;;5035118;28;20057;-75
2022/05/02 02:42:40;;;;;;;11.18;6.00;;;15.30;57.70;;;;;;5047622;28;20028;-76
2022/05/02 02:45:06;;;;;;;7.45;5.82;;;15.40;57.10;;;;;;5053449;28;20029;-75
2022/05/02 02:47:32;;;;;;;10.70;5.80;;;15.50;56.70;;;;;;5048599;28;20017;-75
2022/05/02 02:49:58;;;;;;;7.70;5.32;;;15.50;56.80;;;;;;5051884;28;20031;-75
2022/05/02 02:52:24;;;;;;;9.15;6.07;;;15.40;57.20;;;;;;5054572;28;20395;-75
2022/05/02 02:54:49;;;;;;;8.40;5.53;;;15.40;57.10;;;;;;5052664;28;20051;-75
2022/05/02 02:57:15;;;;;;;8.25;6.10;;;15.40;57.30;;;;;;5036959;28;20065;-76
2022/05/02 02:59:41;;;;;;;10.18;6.32;;;15.40;57.50;;;;;;5038901;28;20068;-75
2022/05/02 03:02:07;;;;;;;9.95;5.20;;;15.30;57.50;;;;;;5040173;28;20029;-75
2022/05/02 03:07:19;;;;;;;7.53;5.28;;;15.30;57.80;;;;;;5058736;28;20040;-75
2022/05/02 03:09:44;;;;;;;8.48;5.72;;;15.30;58.00;;;;;;5056004;28;20037;-75
2022/05/02 03:12:10;;;;;;;10.10;5.63;;;15.30;57.80;;;;;;5038683;28;20030;-75
2022/05/02 03:14:36;;;;;;;8.60;5.43;;;15.30;57.90;;;;;;5038657;28;20028;-75
2022/05/02 03:17:02;;;;;;;10.13;5.88;;;15.20;58.40;;;;;;5037282;28;20026;-75
2022/05/02 03:19:27;;;;;;;8.82;5.00;;;15.20;58.50;;;;;;5037310;28;20029;-75
2022/05/02 03:21:53;;;;;;;10.00;6.10;;;15.20;58.80;;;;;;5037091;28;20033;-75
2022/05/02 03:24:19;;;;;;;10.23;6.55;;;15.20;58.70;;;;;;5037155;28;20391;-75
2022/05/02 03:26:45;;;;;;;13.30;5.82;;;15.20;59.10;;;;;;5038781;28;20053;-76
2022/05/02 03:29:10;;;;;;;9.35;6.07;;;15.10;59.50;;;;;;5038168;28;20412;-75
2022/05/02 03:31:36;;;;;;;9.05;6.20;;;15.10;59.50;;;;;;5036576;28;20037;-75
2022/05/02 03:34:02;;;;;;;10.18;6.80;;;15.10;60.10;;;;;;5038437;28;20040;-75
2022/05/02 03:36:27;;;;;;;7.72;5.53;;;15.10;60.20;;;;;;5038219;28;20029;-76
2022/05/02 03:38:53;;;;;;;11.15;6.07;;;15.00;60.60;;;;;;5038036;28;20567;-76
2022/05/02 03:41:19;;;;;;;8.90;6.28;;;15.00;60.60;;;;;;5038418;28;20504;-75
2022/05/02 03:43:44;;;;;;;11.23;6.07;;;15.00;60.70;;;;;;5036675;28;20144;-76
2022/05/02 03:46:10;;;;;;;9.95;6.28;;;15.00;61.10;;;;;;5038243;28;20377;-75
2022/05/02 03:48:35;;;;;;;10.30;6.57;;;14.90;61.40;;;;;;5037967;28;20029;-75
2022/05/02 03:51:02;;;;;;;8.95;6.10;;;14.90;62.20;;;;;;5057994;28;20029;-75
2022/05/02 03:53:28;;;;;;;10.43;6.35;;;14.90;61.40;;;;;;5050682;28;20021;-75
2022/05/02 03:55:54;;;;;;;10.73;7.65;;;14.80;61.70;;;;;;5036564;28;20029;-75
2022/05/02 03:58:20;;;;;;;9.10;6.25;;;14.80;62.00;;;;;;5037890;28;20021;-75
2022/05/02 04:00:46;;;;;;;8.80;6.57;;;14.90;61.70;;;;;;5037895;28;20029;-75
2022/05/02 04:03:11;;;;;;;12.50;6.88;;;14.80;61.90;;;;;;5040849;28;20029;-75
2022/05/02 04:05:37;;;;;;;12.50;6.70;;;14.80;62.40;;;;;;5057421;28;20572;-75
2022/05/02 04:08:03;;;;;;;8.57;6.22;;;14.70;62.30;;;;;;5056981;28;20514;-75
2022/05/02 04:10:29;;;;;;;10.98;6.63;;;14.80;62.60;;;;;;5056500;28;20029;-76
2022/05/02 04:12:54;;;;;;;10.93;6.75;;;14.70;62.70;;;;;;5056102;28;20080;-75
2022/05/02 04:15:22;;;;;;;9.85;6.43;;;14.70;62.70;;;;;;5057644;28;20009;-76
2022/05/02 04:17:48;;;;;;;10.20;6.60;;;14.70;62.80;;;;;;5048949;28;20083;-75
2022/05/02 04:20:14;;;;;;;10.57;7.07;;;14.70;63.20;;;;;;5037589;28;20026;-75
2022/05/02 04:22:41;;;;;;;11.82;6.57;;;14.70;63.20;;;;;;5045472;28;20098;-76
2022/05/02 04:25:07;;;;;;;9.25;6.53;;;14.60;63.60;;;;;;5056887;28;20021;-75
2022/05/02 04:27:33;;;;;;;10.55;7.10;;;14.60;64.10;;;;;;5056201;28;20028;-76
2022/05/02 04:29:59;;;;;;;12.48;7.57;;;14.60;64.20;;;;;;5048163;28;20473;-75
2022/05/02 04:32:25;;;;;;;10.10;6.90;;;14.60;63.80;;;;;;5037404;28;20022;-75
2022/05/02 04:34:54;;;;;;;9.48;6.35;;;14.60;63.60;;;;;;5035893;28;20537;-76
2022/05/02 04:37:19;;;;;;;13.32;6.85;;;14.60;63.40;;;;;;5037379;28;20057;-75
2022/05/02 04:39:45;;;;;;;10.50;7.05;;;14.70;63.70;;;;;;5044387;28;20102;-75
2022/05/02 04:42:11;;;;;;;15.20;7.72;;;14.60;63.80;;;;;;5055663;28;20029;-75
2022/05/02 04:44:36;;;;;;;11.50;6.80;;;14.60;64.40;;;;;;5051485;28;20048;-75
2022/05/02 04:47:03;;;;;;;11.75;7.40;;;14.50;64.10;;;;;;5046384;28;20128;-75
2022/05/02 04:49:28;;;;;;;11.82;6.45;;;14.50;64.10;;;;;;5053342;28;20352;-73
2022/05/02 04:51:54;;;;;;;10.90;6.85;;;14.50;64.30;;;;;;5051917;28;20083;-74
2022/05/02 04:54:19;;;;;;;11.95;7.63;;;14.50;64.60;;;;;;5036959;28;20018;-73
2022/05/02 04:56:45;;;;;;;9.80;7.05;;;14.50;65.00;;;;;;5036219;28;20055;-74
2022/05/02 04:59:11;;;;;;;11.10;6.97;;;14.50;64.90;;;;;;5036287;28;20024;-73
2022/05/02 05:01:36;;;;;;;11.20;6.85;;;14.50;65.10;;;;;;5036637;28;20025;-73
2022/05/02 05:04:02;;;;;;;11.90;7.07;;;14.50;64.80;;;;;;5047037;28;20099;-73
2022/05/02 05:06:28;;;;;;;10.45;6.93;;;14.50;64.90;;;;;;5037375;28;20490;-73
2022/05/02 05:08:53;;;;;;;11.57;6.57;;;14.50;65.10;;;;;;5051955;28;20026;-72
2022/05/02 05:11:55;;;;;;;8.13;6.30;;;14.50;64.80;;;;;;5041263;28;20072;-73
2022/05/02 05:17:32;;;;;;;11.23;6.45;;;14.50;64.80;;;;;;5036121;28;20032;-75
2022/05/02 05:19:58;;;;;;;8.80;6.15;;;14.60;64.80;;;;;;5037778;28;20033;-75
2022/05/02 05:22:30;;;;;;;9.77;6.68;;;14.50;65.10;;;;;;5035016;28;20148;-76
2022/05/02 05:25:04;;;;;;;9.77;7.07;;;14.50;65.00;;;;;;5036488;28;20029;-76
2022/05/02 05:28:00;;;;;;;9.13;6.50;;;14.50;65.30;;;;;;5040688;28;20037;-76
2022/05/02 05:30:35;;;;;;;10.05;6.57;;;14.50;65.30;;;;;;5043130;28;20227;-77
2022/05/02 05:33:36;;;;;;;10.70;7.93;;;14.50;64.80;;;;;;5035537;28;20048;-77
2022/05/02 05:36:09;;;;;;;10.77;7.25;;;14.50;64.90;;;;;;5035312;28;20480;-77
2022/05/02 05:39:02;;;;;;;9.73;6.05;;;14.50;64.80;;;;;;5041063;28;20056;-77
2022/05/02 05:44:40;;;;;;;9.85;6.55;;;14.60;65.00;;;;;;5112914;27;20384;-78
2022/05/02 05:47:21;;;;;;;10.13;6.47;;;14.50;65.40;;;;;;5103102;28;20187;-76
2022/05/02 05:50:03;;;;;;;11.95;7.28;;;14.40;65.90;;;;;;5095065;28;20048;-74
2022/05/02 05:52:37;;;;;;;10.80;7.47;;;14.40;66.10;;;;;;5104607;28;20092;-76
2022/05/02 05:55:05;;;;;;;11.80;6.97;;;14.50;66.00;;;;;;5110196;28;20556;-79
2022/05/02 05:57:52;;;;;;;10.20;7.07;;;14.60;65.90;;;;;;5110026;28;20024;-77
2022/05/02 06:00:18;;;;;;;11.07;7.40;;;14.60;65.60;;;;;;5098465;28;20111;-78
2022/05/02 06:02:50;;;;;;;14.23;7.70;;;14.70;65.60;;;;;;5108271;28;20386;-78
2022/05/02 06:05:17;;;;;;;11.02;6.50;;;14.70;65.20;;;;;;5102035;28;20560;-77
2022/05/02 06:07:46;;;;;;;10.15;7.15;;;14.80;64.80;;;;;;5110044;28;20095;-78
2022/05/02 06:10:15;;;;;;;12.23;7.32;;;14.90;64.60;;;;;;5109165;28;20073;-78
2022/05/02 06:12:43;;;;;;;10.70;6.90;;;14.90;64.60;;;;;;5105540;28;20032;-75
2022/05/02 06:20:44;;;;;;;9.98;6.78;;;15.00;64.40;;;;;;5107899;28;20554;-77
2022/05/02 06:23:14;;;;;;;10.90;6.60;;;15.10;64.40;;;;;;5111742;28;20170;-76
2022/05/02 06:25:41;;;;;;;10.38;6.47;;;15.10;64.20;;;;;;5111912;28;20047;-77
2022/05/02 06:28:08;;;;;;;12.32;6.85;;;15.10;64.20;;;;;;5111795;28;20051;-76
2022/05/02 06:30:40;;;;;;;9.20;6.47;;;15.20;63.80;;;;;;5099424;28;20042;-76
2022/05/02 06:33:11;;;;;;;10.48;7.10;;;15.20;63.70;;;;;;5091418;28;20028;-76
2022/05/02 06:35:53;;;;;;;13.00;6.72;;;15.20;63.50;;;;;;5103775;28;20030;-76
2022/05/02 06:38:49;;;;;;;14.80;6.72;;;15.10;64.00;;;;;;5111926;28;20363;-76
2022/05/02 06:41:43;;;;;;;11.50;7.45;;;15.10;63.80;;;;;;5091409;28;20058;-76
2022/05/02 06:44:11;;;;;;;12.00;6.55;;;15.20;63.70;;;;;;5104814;28;20826;-76
2022/05/02 06:46:57;;;;;;;13.02;6.88;;;15.20;64.00;;;;;;5111202;28;20529;-76
2022/05/02 06:49:25;;;;;;;12.48;7.22;;;15.20;63.80;;;;;;5091500;28;20031;-76
2022/05/02 06:51:56;;;;;;;12.15;6.93;;;15.30;63.80;;;;;;5097243;28;20099;-76
2022/05/02 06:54:30;;;;;;;9.20;6.30;;;15.30;63.80;;;;;;5084507;28;20024;-76
2022/05/02 06:57:07;;;;;;;11.00;5.85;;;15.40;63.40;;;;;;5077477;28;20032;-76
2022/05/02 07:00:06;;;;;;;8.30;5.88;;;15.50;63.40;;;;;;5077291;28;20486;-76
2022/05/02 07:03:06;;;;;;;10.00;5.80;;;15.50;63.40;;;;;;5084418;28;20046;-76
2022/05/02 07:05:46;;;;;;;9.63;6.80;;;15.60;63.40;;;;;;5077044;28;20021;-76
2022/05/02 07:08:18;;;;;;;;;;;15.60;63.70;;;;;;5078257;28;20016;-77
2022/05/02 07:10:49;;;;;;;9.27;5.45;;;15.70;63.30;;;;;;5079578;28;19904;-76
2022/05/02 07:13:24;;;;;;;9.25;6.10;;;15.80;62.60;;;;;;5082643;28;20040;-76
2022/05/02 07:15:50;;;;;;;9.07;5.72;;;15.90;62.00;;;;;;5077139;28;20035;-77
2022/05/02 07:18:28;;;;;;;12.30;6.38;;;16.00;61.90;;;;;;5077841;28;20082;-76
2022/05/02 07:21:05;;;;;;;8.07;6.00;;;16.40;61.00;;;;;;5077107;28;20025;-77
2022/05/02 07:23:57;;;;;;;11.68;6.72;;;16.70;60.50;;;;;;5076104;28;20564;-77
2022/05/02 07:26:25;;;;;;;9.52;6.78;;;17.00;59.10;;;;;;5075860;28;20125;-76
2022/05/02 07:28:52;;;;;;;9.55;6.50;;;17.30;58.60;;;;;;5077074;28;20390;-76
2022/05/02 07:31:19;;;;;;;8.38;5.75;;;17.30;57.90;;;;;;5076838;28;20023;-76
2022/05/02 07:33:47;;;;;;;10.23;6.00;;;17.60;57.60;;;;;;5077037;28;20039;-76
2022/05/02 07:36:26;;;;;;;11.77;6.20;;;17.80;57.30;;;;;;5076894;28;20021;-77
2022/05/02 07:39:05;;;;;;;10.30;6.50;;;18.00;56.10;;;;;;5076929;28;20036;-77
2022/05/02 07:41:32;;;;;;;10.05;6.50;;;18.40;54.80;;;;;;5076534;28;20035;-77
2022/05/02 07:44:08;;;;;;;8.32;5.75;;;18.90;53.40;;;;;;5094822;28;20050;-77
2022/05/02 07:46:39;;;;;;;9.23;5.70;;;19.60;51.60;;;;;;5097043;28;20073;-77
2022/05/02 07:49:06;;;;;;;9.90;6.72;;;20.50;49.30;;;;;;5080351;28;20059;-76
2022/05/02 07:51:33;;;;;;;8.60;5.28;;;21.00;47.50;;;;;;5081838;28;20012;-76
2022/05/02 07:54:01;;;;;;;9.40;5.40;;;21.20;46.10;;;;;;5097126;28;20020;-76
2022/05/02 07:56:30;;;;;;;7.57;5.63;;;21.30;45.60;;;;;;5090971;28;20033;-77
2022/05/02 07:58:58;;;;;;;8.90;5.15;;;21.70;45.10;;;;;;5076584;28;20078;-77
2022/05/02 08:01:24;;;;;;;8.65;6.38;;;21.80;44.80;;;;;;5075701;28;20032;-77
2022/05/02 08:03:51;;;;;;;9.18;5.80;;;21.70;44.20;;;;;;5084414;28;20096;-77
2022/05/02 08:06:30;;;;;;;7.57;5.78;;;21.50;44.40;;;;;;5094336;28;20031;-77
2022/05/02 08:09:14;;;;;;;8.93;6.20;;;21.30;44.20;;;;;;5096729;28;20225;-77
2022/05/02 08:11:55;;;;;;;8.48;5.85;;;21.00;45.00;;;;;;5093197;28;20051;-77
2022/05/02 08:14:25;;;;;;;9.10;5.70;;;20.90;45.00;;;;;;5093604;28;20024;-77
2022/05/02 08:17:01;;;;;;;8.38;5.90;;;20.90;44.10;;;;;;5094531;28;20027;-77
2022/05/02 08:19:36;;;;;;;8.00;5.55;;;21.00;45.00;;;;;;5094223;28;20099;-77
2022/05/02 08:29:05;;;;;;;6.80;5.30;;;21.00;43.40;;;;;;5075831;28;20028;-76
2022/05/02 08:31:49;;;;;;;9.25;5.63;;;21.40;42.30;;;;;;5004483;28;20034;-77
2022/05/02 08:34:33;;;;;;;8.23;5.35;;;21.70;39.00;;;;;;5080332;28;20047;-77
2022/05/02 08:37:13;;;;;;;10.48;5.68;;;21.80;41.30;;;;;;5089091;28;20505;-77
2022/05/02 08:40:00;;;;;;;8.77;5.88;;;22.00;40.10;;;;;;5095899;28;20406;-77
2022/05/02 08:42:47;;;;;;;8.30;5.75;;;22.30;38.60;;;;;;5091577;28;20048;-77
2022/05/02 08:45:52;;;;;;;6.22;5.55;;;22.80;37.30;;;;;;5075461;28;20029;-77
2022/05/02 08:48:46;;;;;;;7.20;5.40;;;23.60;36.80;;;;;;5063778;28;20056;-77
2022/05/02 08:51:30;;;;;;;8.93;5.97;;;24.30;36.70;;;;;;5093388;28;20839;-78
2022/05/02 08:54:18;;;;;;;6.25;5.60;;;24.80;35.60;;;;;;5094323;28;20035;-78
2022/05/02 08:56:55;;;;;;;6.82;6.00;;;25.20;34.30;;;;;;5091812;28;20390;-77
2022/05/02 08:59:49;;;;;;;11.77;5.80;;;25.50;33.80;;;;;;5075376;28;20028;-77
2022/05/02 09:02:36;;;;;;;7.32;5.55;;;25.50;31.90;;;;;;5074807;28;20044;-78
2022/05/02 09:05:43;;;;;;;8.93;5.80;;;25.50;33.30;;;;;;5093742;28;20102;-78
2022/05/02 09:08:45;;;;;;;8.65;6.15;;;25.50;31.70;;;;;;5089070;28;20045;-78
2022/05/02 09:11:11;;;;;;;9.02;5.60;;;25.30;33.00;;;;;;5084847;28;20024;-78
2022/05/02 09:13:57;;;;;;;6.88;5.82;;;24.80;31.40;;;;;;5082944;28;20058;-78
2022/05/02 09:16:41;;;;;;;7.70;5.70;;;24.60;33.00;;;;;;5073618;28;20023;-78
2022/05/02 09:19:30;;;;;;;7.90;5.03;;;25.00;31.00;;;;;;5075027;28;20028;-78
2022/05/02 09:22:17;;;;;;;8.32;5.35;;;25.80;32.20;;;;;;5062783;28;20055;-76
2022/05/02 09:25:01;;;;;;;7.53;5.22;;;26.50;30.20;;;;;;5074941;28;20032;-78
2022/05/02 09:27:27;;;;;;;8.05;5.45;;;27.00;31.00;;;;;;5074904;28;20025;-76
2022/05/02 09:30:12;;;;;;;6.93;5.47;;;27.70;29.10;;;;;;5089744;28;20028;-78
2022/05/02 09:32:51;;;;;;;7.85;5.60;;;28.20;27.40;;;;;;5084046;28;20024;-76
2022/05/02 09:35:34;;;;;;;10.98;6.35;;;28.70;27.70;;;;;;5074880;28;20036;-76
2022/05/02 09:38:25;;;;;;;8.52;5.40;;;28.80;26.30;;;;;;5075442;28;20033;-76
2022/05/02 09:40:59;;;;;;;5.93;4.72;;;29.00;27.10;;;;;;5079084;28;20036;-76
2022/05/02 09:49:48;;;;;;;7.28;6.07;;;28.90;25.80;;;;;;5076984;28;20050;-76
2022/05/02 09:52:17;;;;;;;8.40;5.80;;;28.70;25.00;;;;;;5085721;28;20024;-76
2022/05/02 09:57:55;;;;;;;7.22;5.60;;;28.50;27.30;;;;;;5074834;28;20578;-77
2022/05/02 10:03:52;;;;;;;7.75;6.00;;;27.90;29.70;;;;;;5076965;28;20433;-77
2022/05/02 10:06:35;;;;;;;8.27;6.38;;;27.80;29.90;;;;;;5087844;28;20036;-77
2022/05/02 10:09:17;;;;;;;8.48;6.15;;;27.50;30.60;;;;;;5078564;28;20020;-77
2022/05/02 10:11:48;;;;;;;10.25;5.75;;;27.30;30.20;;;;;;5080824;28;20062;-77
2022/05/02 10:14:29;;;;;;;9.45;6.10;;;27.00;30.80;;;;;;5073046;28;20025;-76
2022/05/02 10:17:04;;;;;;;10.75;6.47;;;26.70;31.10;;;;;;5073227;28;20029;-77
2022/05/02 10:20:04;;;;;;;8.25;5.88;;;26.30;32.00;;;;;;5072785;28;20143;-77
2022/05/02 10:22:45;;;;;;;10.30;7.28;;;26.20;32.10;;;;;;5072610;28;20028;-76
2022/05/02 10:25:19;;;;;;;8.68;6.50;;;26.00;32.00;;;;;;5073316;28;20081;-77
2022/05/02 10:27:44;;;;;;;9.27;6.57;;;26.00;31.80;;;;;;5072670;28;20029;-78
2022/05/02 10:30:12;;;;;;;7.03;5.85;;;26.00;32.90;;;;;;5084869;28;20028;-77
2022/05/02 10:32:40;;;;;;;8.85;6.47;;;25.80;32.30;;;;;;5077694;28;20025;-77
2022/05/02 10:35:14;;;;;;;9.32;6.10;;;25.90;33.40;;;;;;5078206;28;20127;-78
2022/05/02 10:37:42;;;;;;;7.32;6.00;;;25.30;31.90;;;;;;5077712;28;20056;-77
2022/05/02 10:40:12;;;;;;;8.75;6.20;;;25.10;34.10;;;;;;5078158;28;20089;-77
2022/05/02 10:42:57;;;;;;;8.32;6.00;;;25.30;34.30;;;;;;5077814;28;20037;-77
2022/05/02 10:45:29;;;;;;;7.10;5.35;;;25.50;34.80;;;;;;5077534;28;20020;-77
2022/05/02 10:47:56;;;;;;;11.00;6.47;;;25.70;34.20;;;;;;5077868;28;20028;-75
2022/05/02 10:50:34;;;;;;;7.90;6.03;;;25.50;34.20;;;;;;5077790;28;20021;-76
2022/05/02 10:53:09;;;;;;;7.75;5.18;;;25.40;33.90;;;;;;5100803;28;20059;-77
2022/05/02 10:56:18;;;;;;;13.13;6.80;;;25.30;32.80;;;;;;5077943;28;20028;-77
2022/05/02 10:58:44;;;;;;;8.77;6.03;;;25.00;34.20;;;;;;5066852;28;20041;-79
2022/05/02 11:01:45;;;;;;;10.43;6.40;;;24.70;33.80;;;;;;5077614;28;20017;-82
2022/05/02 11:04:17;;;;;;;8.02;6.03;;;24.50;32.90;;;;;;5088437;28;20111;-85
2022/05/02 11:06:56;;;;;;;10.13;6.15;;;24.50;34.70;;;;;;5096552;28;20043;-79
2022/05/02 11:09:48;;;;;;;10.68;6.53;;;24.70;35.80;;;;;;5098040;28;20049;-78
2022/05/02 11:12:18;;;;;;;8.60;5.85;;;24.80;34.90;;;;;;5092009;28;20048;-76
2022/05/02 11:15:02;;;;;;;7.80;5.80;;;24.90;33.50;;;;;;5077460;28;20021;-77
2022/05/02 11:17:42;;;;;;;6.82;5.00;;;24.90;34.00;;;;;;5077344;28;20028;-78
2022/05/02 11:23:08;;;;;;;8.15;5.10;;;24.90;33.60;;;;;;5077333;28;20489;-78
2022/05/02 11:25:44;;;;;;;7.28;5.50;;;25.10;33.90;;;;;;5077469;28;20032;-77
2022/05/02 11:28:36;;;;;;;9.15;5.90;;;25.10;33.80;;;;;;5077684;28;20111;-77
2022/05/02 11:31:26;;;;;;;7.97;4.63;;;24.80;31.90;;;;;;5096691;28;20552;-79
2022/05/02 11:34:30;;;;;;;7.13;4.80;;;24.60;31.70;;;;;;5075498;28;20597;-80
2022/05/02 11:36:58;;;;;;;5.97;4.40;;;24.80;30.90;;;;;;5076564;28;20099;-78
2022/05/02 11:39:46;;;;;;;6.60;5.07;;;24.90;30.90;;;;;;5076808;28;20028;-78
2022/05/02 11:42:18;;;;;;;7.20;4.10;;;24.60;31.60;;;;;;5076784;28;20044;-79
2022/05/02 11:45:02;;;;;;;7.45;4.00;;;24.60;32.00;;;;;;5076710;28;20051;-78
2022/05/02 11:47:49;;;;;;;6.43;4.57;;;24.60;31.60;;;;;;5076755;28;20017;-78
2022/05/02 11:50:18;;;;;;;8.20;4.68;;;24.30;30.50;;;;;;5076707;28;20375;-78
2022/05/02 11:52:54;;;;;;;10.45;5.78;;;24.10;31.90;;;;;;5091992;28;20043;-78
2022/05/02 11:55:27;;;;;;;7.30;5.07;;;24.20;32.90;;;;;;5096500;28;20111;-78
2022/05/02 11:58:05;;;;;;;8.27;5.25;;;24.20;33.40;;;;;;5091161;28;20471;-78
2022/05/02 12:00:32;;;;;;;10.02;6.82;;;24.30;32.80;;;;;;5074398;28;20024;-78
2022/05/02 12:03:13;;;;;;;15.80;6.50;;;24.20;34.10;;;;;;5077723;28;20832;-78
2022/05/02 12:05:43;;;;;;;8.25;5.65;;;24.20;34.50;;;;;;5095493;28;20562;-78
2022/05/02 12:08:20;;;;;;;8.30;5.90;;;24.20;34.70;;;;;;5091660;28;20516;-78
2022/05/02 12:10:47;;;;;;;8.10;4.68;;;24.20;33.60;;;;;;5078973;28;20092;-79
2022/05/02 12:13:20;;;;;;;8.38;4.75;;;24.20;34.90;;;;;;5095495;28;20026;-79
2022/05/02 12:16:02;;;;;;;6.00;4.50;;;24.30;33.80;;;;;;5082242;28;20052;-79
2022/05/02 12:18:53;;;;;;;7.20;4.60;;;24.50;33.80;;;;;;5075939;28;20020;-79
2022/05/02 12:21:33;;;;;;;8.55;4.90;;;24.40;33.20;;;;;;5076135;28;20047;-79
2022/05/02 12:24:04;;;;;;;10.20;5.22;;;24.60;32.70;;;;;;5075810;28;20020;-80
2022/05/02 12:26:32;;;;;;;11.27;5.43;;;24.70;33.00;;;;;;5091458;28;20043;-79
2022/05/02 12:29:04;;;;;;;7.20;4.80;;;24.60;33.50;;;;;;5083351;28;20024;-79
2022/05/02 12:31:35;;;;;;;9.70;5.38;;;24.50;33.30;;;;;;5095830;28;20035;-76
2022/05/02 12:34:09;;;;;;;9.82;4.82;;;24.40;33.70;;;;;;5095404;28;20028;-78
2022/05/02 12:36:37;;;;;;;6.53;4.80;;;24.40;33.50;;;;;;5095343;28;20042;-78
2022/05/02 12:39:05;;;;;;;8.30;5.35;;;24.30;33.60;;;;;;5090010;28;20032;-78
2022/05/02 12:42:02;;;;;;;8.68;4.97;;;24.10;33.50;;;;;;5075481;28;20020;-78
2022/05/02 12:44:46;;;;;;;7.82;4.78;;;24.30;33.10;;;;;;5074751;28;20052;-78
2022/05/02 12:47:39;;;;;;;5.95;4.63;;;24.30;33.90;;;;;;5075642;28;20494;-78
2022/05/02 12:50:17;;;;;;;7.97;4.78;;;24.20;33.40;;;;;;5074786;28;20027;-78
2022/05/02 12:52:52;;;;;;;6.60;4.68;;;24.30;33.50;;;;;;5087762;28;20020;-80
2022/05/02 12:55:21;;;;;;;7.10;5.13;;;24.20;34.50;;;;;;5087932;28;20115;-77
2022/05/02 13:00:41;;;;;;;9.00;4.60;;;24.50;34.00;;;;;;5091919;28;20417;-78
2022/05/02 13:03:10;;;;;;;9.15;5.22;;;24.40;34.60;;;;;;5077504;28;20040;-77
2022/05/02 13:05:39;;;;;;;7.78;5.15;;;24.40;34.40;;;;;;5081276;28;20113;-82
2022/05/02 13:08:17;;;;;;;8.52;5.57;;;24.60;34.10;;;;;;5075143;28;20138;-83
2022/05/02 13:10:44;;;;;;;7.35;5.18;;;24.50;33.90;;;;;;5076876;28;20028;-81
2022/05/02 13:13:15;;;;;;;8.20;5.25;;;24.40;34.20;;;;;;5093835;28;20482;-83
2022/05/02 13:15:47;;;;;;;9.52;6.22;;;24.30;33.90;;;;;;5093411;28;20386;-83
2022/05/02 13:18:14;;;;;;;8.23;5.35;;;24.30;34.60;;;;;;5095155;28;20055;-84
2022/05/02 13:20:56;;;;;;;8.27;4.60;;;24.40;33.80;;;;;;5095171;28;20079;-84
2022/05/02 13:23:22;;;;;;;8.10;5.43;;;24.50;33.90;;;;;;5086300;28;20025;-87
2022/05/02 13:26:26;;;;;;;10.90;5.10;;;24.30;33.10;;;;;;5074960;28;20042;-83
2022/05/02 13:29:48;;;;;;;8.40;4.93;;;24.60;34.50;;;;;;5073735;28;20035;-84
2022/05/02 13:32:23;;;;;;;6.72;5.30;;;24.50;34.10;;;;;;5052227;28;20029;-84
2022/05/02 13:35:00;;;;;;;9.82;5.35;;;24.30;34.80;;;;;;5052434;28;20144;-82
2022/05/02 13:37:37;;;;;;;6.45;4.70;;;24.30;34.40;;;;;;5068603;28;20033;-79
2022/05/02 13:40:10;;;;;;;7.93;5.30;;;24.30;34.50;;;;;;5074541;28;20509;-79
2022/05/02 13:43:02;;;;;;;9.43;5.30;;;24.20;34.70;;;;;;5074921;28;20052;-79
2022/05/02 13:45:45;;;;;;;7.75;4.85;;;23.90;34.60;;;;;;5100896;28;20032;-79
2022/05/02 13:48:35;;;;;;;7.82;5.50;;;23.80;35.10;;;;;;5087672;28;20036;-81
2022/05/02 13:51:06;;;;;;;7.32;4.50;;;23.80;35.10;;;;;;5075447;28;20032;-80
2022/05/02 13:53:34;;;;;;;8.82;5.35;;;23.90;34.90;;;;;;5094737;28;20036;-80